Tribbett, Mississippi
Current Conditions -  °F | °C
As of 11:53 PM on Saturday 20 Dec 2014 (Local Time) from KTUP Reporting Station
Clear Clear  
Wind Chill: 28°   Ceiling: Unl
Heat Index: 33°   Visibility: 10mi
Dew Point: 29°   Wind: 6mph
Humidity: 85%   Direction: 30°NNE
Pressure: 30.24"   Gusts: NA
Location:  34.1966°N, 88.7098°W
Report Text: KTUP 210553Z 03005KT 10SM CLR 01/M02 A3024 RMK AO2 SLP240 T00061017 10061 20006 401220000 50003
Loading
Personal Weather Stations






























Interactive Weather Map New forecast layout! Learn more

10-Day Weather Forecast

Advertisements
Track Severe Weather on mobile